Impacts METAR Board
IDs:

KFLL - Ft Lauderdale-Hollyw, FL, US

Updated at: 1500 UTC 23 May 2018
Potential Impact None Slight Moderate High
Time 23/03Z 23/04Z 23/05Z 23/06Z 23/07Z 23/08Z 23/09Z 23/10Z 23/11Z 23/12Z 23/13Z 23/14Z 23/15Z
Temp78 78 78 78 77 78 77 77 77 78 80 82 83
Dewpt73 73 73 73 74 74 74 74 74 75 75 74 74
Altim30.06 30.06 30.06 30.05 30.04 30.03 30.04 30.04 30.05 30.07 30.08 30.08 30.09
VIS10 10 10 10 10 10 10 10 10 10 10 10 10
CIG-- -- -- -- -- -- 48 250 -- -- 250 -- --
CoverFEWSCTFEWSCTSCTSCTBKNBKNSCTSCTBKNSCTSCT
FltCatVFRVFRVFRVFRVFRVFRVFRVFRVFRVFRVFRVFRVFR
WX--------------------------
WDir110110110110120120110110110110110110130
WSpd11 11 9 9 11 11 9 9 10 11 12 13 14
WGst-- -- -- -- -- -- -- -- -- -- -- -- --
Raw hourly METARs
KFLL 230253Z 11011KT 10SM FEW024 FEW120 26/23 A3006 RMK AO2 SLP178 T02560228 51005
KFLL 230353Z 11011KT 10SM FEW027 SCT100 26/23 A3006 RMK AO2 SLP178 T02560228
KFLL 230453Z 11009KT 10SM FEW025 26/23 A3006 RMK AO2 SLP178 T02560228 402780256
KFLL 230553Z 11009KT 10SM SCT023 SCT037 26/23 A3005 RMK AO2 SLP175 T02560228 10261 20250 58003
KFLL 230653Z 12011KT 10SM SCT023 25/23 A3004 RMK AO2 SLP170 T02500233
KFLL 230753Z 12011KT 10SM SCT021 SCT060 26/23 A3003 RMK AO2 SLP169 T02560233
KFLL 230853Z 11009KT 10SM SCT024 BKN048 BKN070 25/23 A3004 RMK AO2 RAB21E50 SLP170 P0014 60014 T02500233 55004
KFLL 230953Z 11009KT 10SM FEW023 SCT050 BKN250 25/23 A3004 RMK AO2 SLP171 T02500233
KFLL 231053Z 11010KT 10SM FEW021 SCT100 SCT250 25/23 A3005 RMK AO2 SLP177 T02500233
KFLL 231153Z 11011KT 10SM SCT020 SCT200 26/24 A3007 RMK AO2 SLP181 60014 70014 T02560239 10256 20233 53010
KFLL 231253Z 11012KT 10SM FEW025 BKN250 27/24 A3008 RMK AO2 SLP185 T02670239
KFLL 231353Z 11013KT 10SM FEW025 FEW150 SCT250 28/23 A3008 RMK AO2 SLP186 T02780233
KFLL 231453Z 13014KT 10SM FEW025 FEW150 SCT250 28/23 A3009 RMK AO2 SLP188 T02830233 51007



Page loaded:  15:12 UTC  |   08:12 AM Pacific  |   09:12 AM Mountain  |   10:12 AM Central  |   11:12 AM Eastern

 

ADVISORIES

FORECASTS

FORECASTS

OBSERVATIONS

USER TOOLS

ABOUT US